EDHLEDDT

Guest
Details From EDHL - Lubeck Blankensee
To EDDT - Berlin Tegel
Flight Number -
Tags decoded
Created
Modified
Stats Distance 119 nm / 220 km
Max Altitude 0 ft / 0 m
Waypoints 3
Social Downloads 0
Likes 0
Share VATSIM

Download

Looking for another format? Having issues loading an existing format? Contact us
Advertisement - Login to hide

Notes

Requested: EDHL RAMAR EDDT

Route

EDHL RAMAR EDDT

ID Type Via Altitude Latitude Longitude Leg Dist Tot Dist Heading (true) Name
O EDHL APT - 0 ft / 0 m 53.80496˚ 10.71706˚ - 0 nm - Lubeck Blankensee
RAMAR FIX - 0 ft / 0 m 53.71083˚ 10.93889˚ 9 nm 9 nm 126° / 126° -
O EDDT APT - 0 ft / 0 m 52.55910˚ 13.29019˚ 109 nm 119 nm 128° / 130° Berlin Tegel

Altitude Profile

Advertisement - Login to hide

EDHL

Details ICAO EDHL (LBC)
Name Lubeck Blankensee
Region Germany - Civil
Timezone Europe/Berlin (UTC+1.0)
Stats Elevation 53 ft / 16 m (AMSL)
Location 53.804963° 10.717059°
Runways 1
Magnetic Variation 3.023° E

METAR

EDHL 181120Z VRB02KT CAVOK 03/M00 Q1024

Decode

TAF

Not found

Departure Runways

ID Width Length Bearing (true) Bearing (mag) Surface Threshold Offset Overrun Length
07 197 ft / 60 m 6,877 ft / 2,096 m 71.96° 68.94° Asphalt 984 ft / 300 m 0 ft / 0 m
25 197 ft / 60 m 6,877 ft / 2,096 m 251.98° 248.96° Asphalt 0 ft / 0 m 0 ft / 0 m

EDDT

Details ICAO EDDT (TXL)
Name Berlin Tegel
Region Germany - Civil
Timezone Europe/Berlin (UTC+1.0)
Stats Elevation 122 ft / 37 m (AMSL)
Location 52.559100° 13.290188°
Runways 2
Magnetic Variation 3.753° E

METAR

EDDT 181120Z 15007KT 120V180 CAVOK 03/M03 Q1025 NOSIG

Decode

TAF

TAF EDDT 180500Z 1806/1906 16005KT 9999 BKN030

Decode

Destination Runways

ID Width Length Bearing (true) Bearing (mag) Surface Threshold Offset Overrun Length
08L 151 ft / 46 m 9,885 ft / 3,013 m 80.83° 77.08° Asphalt 0 ft / 0 m 226 ft / 69 m
08R 151 ft / 46 m 7,923 ft / 2,415 m 80.84° 77.09° Asphalt 341 ft / 104 m 207 ft / 63 m
26L 151 ft / 46 m 7,923 ft / 2,415 m 260.87° 257.12° Asphalt 722 ft / 220 m 157 ft / 48 m
26R 151 ft / 46 m 9,885 ft / 3,013 m 260.86° 257.11° Asphalt 0 ft / 0 m 223 ft / 68 m

Approach Navaids

Runway Type Ident Frequency Range Bearing (true) Bearing (mag) Slope Elevation
08L Localiser ITLE 109.10 MHz 18 nm / 33 km 80.85° 77.10° - 111 ft / 34 m (AMSL)
08L Glidescope ITLE 109.10 MHz 10 nm / 19 km 80.84° 77.09° 3.00° 111 ft / 34 m (AMSL)
08R Localiser ITGE 108.50 MHz 18 nm / 33 km 80.87° 77.11° - 109 ft / 33 m (AMSL)
08R Glidescope ITGE 108.50 MHz 10 nm / 19 km 80.86° 77.10° 3.00° 109 ft / 33 m (AMSL)
26L Localiser ITGW 109.30 MHz 18 nm / 33 km 260.83° 257.08° - 121 ft / 37 m (AMSL)
26L Glidescope ITGW 109.30 MHz 10 nm / 19 km 260.86° 257.10° 3.00° 121 ft / 37 m (AMSL)
26R Localiser ITLW 110.10 MHz 18 nm / 33 km 260.83° 257.08° - 118 ft / 36 m (AMSL)
26R Glidescope ITLW 110.10 MHz 10 nm / 19 km 260.85° 257.09° 3.00° 118 ft / 36 m (AMSL)

Popular Alternatives